x

Southeast Bering Sea -205nm Wnw Of Dutch Harbor, Ak (46073) Wave Buoy

5:50 - Sat 1st Oct 2016 All times are UTC.

  • Sig Wave height 20.7ft
  • Swell Direction
  • Peak Period 12s
  • Average Period 9s
  • Wind
    31mph, 38mph gusts
  • Sea Temp 48°f
  • Luft Temp 48°f
  • Sea Pressure 1001.5mb

More Historic Weather Station data

Upgrade to MSW Pro to gain access to the past 30 days of data for over 8000 Wavebouys and Weather Stations around the globe.

Join Pro

Comparision Forecast

View Surf forecast
   
Sa 10/01 5:50 20.5ft 12s 9s 31 38 mph 1001.5mb 48f 48f
4:50 20ft 11s 9s 34 45 mph 1000.1mb 48f 48f
3:50 18.5ft 11s 9s 31 43 mph 998.6mb 48f 48f
2:50 18ft 12s 8s 36 47 mph 997.1mb 48f 48f
1:50 19.5ft 12s 8s 36 45 mph 995.6mb 48f 48f
12:50 18.5ft 11s 8s 38 45 mph 993.9mb 48f 48f
11:50 19ft 11s 8s 40 54 mph 992.1mb 49f 48f
10:50 17.5ft 10s 8s 38 51 mph 990.3mb 49f 48f
9:50 13.5ft 8s 7s 38 49 mph 988.5mb 49f 47f
8:50 11ft 10s 6s 40 49 mph 986.2mb 49f 48f
7:50 10ft 10s 6s 34 40 mph 984.7mb 49f 49f
6:50 9ft 8s 7s 27 34 mph 982.8mb 49f 50f
5:50 10.5ft 9s 8s 16 20 mph 981.7mb 49f 49f
4:50 10ft 9s 7s 9 11 mph 981.1mb 49f 49f
3:50 10.5ft 9s 8s 4
mph
980.9mb 49f 49f
2:50 10ft 10s 7s 4
mph
981mb 49f 49f
1:50 10ft 8s 7s 4 7 mph 981.2mb 49f 50f
12:50 10ft 8s 7s 11 13 mph 982.1mb 49f 50f
Fr 09/30 11:50 10ft 7s 6s 16 18 mph 983.4mb 49f 50f
10:50 10ft 8s 6s 22 27 mph 985.2mb 49f 51f
9:50 9ft 8s 6s 25 29 mph 987.2mb 49f 51f
8:50 10.5ft 8s 6s 27 34 mph 988.8mb 49f 51f
7:50 10ft 8s 6s 27 34 mph 990.9mb 49f 51f
6:50 10ft 8s 6s 27 31 mph 993.1mb 49f 51f
5:50 9ft 8s 6s 25 31 mph 995.2mb 49f 51f
4:50 8.5ft 7s 6s 27 31 mph 996.9mb 49f 51f
3:50 9ft 8s 6s 25 29 mph 998.7mb 49f 50f
2:50 9ft 8s 7s 25 27 mph 1000.5mb 49f 50f
1:50 9ft 11s 7s 22 27 mph 1002.1mb 49f 51f
12:50 9ft 8s 7s 25 29 mph 1003.7mb 49f 50f
11:50 8.5ft 8s 7s 22 27 mph 1004.8mb 49f 50f
10:50 8ft 8s 7s 20 25 mph 1006mb 49f 50f
9:50 9ft 8s 7s 18 22 mph 1006.8mb 49f 50f
8:50 10.5ft 9s 7s 20 25 mph 1007.3mb 49f 50f
7:50 9ft 9s 7s 18 20 mph 1007.8mb 49f 50f
6:50 9ft 8s 7s 18 20 mph 1008.3mb 49f 50f
5:50 11ft 10s 7s 20 25 mph 1008.3mb 49f 50f
4:50 11ft 9s 7s 20 25 mph 1009mb 49f 50f
3:50 13ft 12s 8s 20 27 mph 1009.5mb 49f 51f
2:50 14.5ft 8s 8s 25 34 mph 1009.6mb 49f 51f
1:50 15ft 9s 8s 27 34 mph 1010.3mb 49f 51f
12:50 14ft 10s 8s 27 34 mph 1010.9mb 49f 51f
Do 09/29 11:50 15ft 10s 8s 27 34 mph 1011.5mb 49f 51f
10:50 14.5ft 10s 8s 29 36 mph 1011.8mb 49f 51f
9:50 16.5ft 9s 8s 29 36 mph 1012.4mb 49f 51f
8:50 15ft 9s 8s 31 38 mph 1012.8mb 49f 52f
7:50 14ft 10s 7s 31 38 mph 1013mb 49f 51f
6:50 14ft 9s 7s 31 40 mph 1013.3mb 49f 51f
5:50 13ft 8s 7s 31 38 mph 1013.7mb 49f 51f
4:50 12ft 8s 6s 34 40 mph 1014.3mb 49f 51f
3:50 10.5ft 8s 6s 34 40 mph 1015.1mb 49f 50f
2:50 10ft 8s 6s 36 45 mph 1015.8mb 49f 50f
1:50 9ft 7s 6s 31 38 mph 1017mb 49f 50f
12:50 8ft 8s 6s 29 36 mph 1018.6mb 49f 50f
11:50 8ft 7s 6s 27 34 mph 1020.1mb 49f 50f
10:50 8ft 7s 6s 27 34 mph 1021.3mb 49f 50f
9:50 7.5ft 6s 6s 27 34 mph 1022.5mb 49f 51f
8:50 7ft 7s 6s 25 34 mph 1023.1mb 49f 51f
7:50 6ft 6s 6s 22 29 mph 1024mb 49f 51f
6:50 6ft 6s 6s 25 29 mph 1024.5mb 49f 51f
5:50 6ft 9s 5s 25 29 mph 1025mb 49f 51f
4:50 6ft 10s 5s 22 27 mph 1025.4mb 49f 50f
3:50 6.5ft 10s 6s 22 27 mph 1025.9mb 49f 50f
2:50 6ft 8s 6s 20 25 mph 1026.3mb 49f 50f
1:50 6.5ft 9s 6s 18 22 mph 1027mb 49f 50f
12:50 6ft 9s 6s 16 20 mph 1027.6mb 49f 51f
Mi 09/28 11:50 6.5ft 9s 7s 16 18 mph 1028.3mb 49f 50f
10:50 6ft 10s 7s 16 20 mph 1028.6mb 49f 50f
9:50 6ft 10s 7s 16 20 mph 1028.7mb 49f 50f
8:50 6.5ft 10s 7s 16 20 mph 1029mb 49f 50f
7:50 6.5ft 10s 7s 13 16 mph 1029.1mb 49f 51f
6:50 7ft 10s 7s 13 16 mph 1029.1mb 49f 50f
5:50 8ft 11s 7s 13 16 mph 1029mb 49f 50f
4:50 7.5ft 11s 7s 13 18 mph 1028.5mb 49f 50f
3:50 9ft 10s 7s 16 18 mph 1028mb 49f 51f
2:50 9ft 10s 7s 16 18 mph 1027.8mb 49f 51f
1:50 10ft 10s 7s 16 18 mph 1027.6mb 49f 51f
12:50 8.5ft 11s 7s 16 18 mph 1027.5mb 49f 50f
11:50 9ft 10s 7s 16 18 mph 1027.4mb 49f 51f
10:50 9ft 10s 7s 13 18 mph 1027.3mb 49f 51f
9:50 7ft 10s 7s 16 18 mph 1027.1mb 49f 51f
8:50 7ft 8s 6s 16 18 mph 1026.7mb 49f 51f
7:50 7ft 8s 6s 18 20 mph 1026.1mb 49f 51f
6:50 6ft 8s 6s 22 25 mph 1025.3mb 50f 51f
5:50 6ft 9s 6s 20 25 mph 1025.3mb 50f 51f
4:50 5.5ft 8s 5s 18 22 mph 1024.9mb 50f 51f
3:50 6ft 7s 5s 18 22 mph 1024.6mb 50f 51f
2:50 6.5ft 6s 5s 18 22 mph 1024.6mb 50f 50f
1:50 6ft 6s 5s 20 27 mph 1024.2mb 50f 50f
12:50 6ft 6s 5s 22 29 mph 1024mb 50f 49f
Di 09/27 11:50 5.5ft 6s 5s 22 27 mph 1024.1mb 50f 49f
10:50 5.5ft 6s 5s 20 27 mph 1024.1mb 50f 49f
9:50 5ft 6s 5s 20 25 mph 1023.9mb 50f 50f
8:50 5ft 8s 5s 20 22 mph 1024mb 50f 50f
7:50 4.5ft 8s 5s 22 25 mph 1023.6mb 50f 49f